Time;durP1;ratioP1;P1;durP2;ratioP2;P2;SDS_P1;SDS_P2;PMS_P1;PMS_P2;Temp;Humidity;BMP_temperature;BMP_pressure;BME280_temperature;BME280_humidity;BME280_pressure;Samples;Min_cycle;Max_cycle;Signal;HPM_P1;HPM_P2
2023/02/11 00:02:13;;;;;;;13.85;12.85;;;;;;;;;;4960096;28;20062;-61
2023/02/11 00:04:39;;;;;;;14.38;13.13;;;;;;;;;;4948045;28;20549;-60
2023/02/11 00:07:04;;;;;;;12.77;11.88;;;;;;;;;;4958608;28;20094;-60
2023/02/11 00:09:29;;;;;;;15.07;13.88;;;;;;;;;;4958925;28;20070;-61
2023/02/11 00:11:55;;;;;;;13.98;12.88;;;;;;;;;;4958341;28;20031;-61
2023/02/11 00:14:20;;;;;;;12.77;11.80;;;;;;;;;;4956412;28;20497;-60
2023/02/11 00:16:46;;;;;;;12.43;11.45;;;;;;;;;;4959306;28;20114;-61
2023/02/11 00:19:11;;;;;;;15.68;14.30;;;;;;;;;;4958584;28;20146;-62
2023/02/11 00:21:36;;;;;;;14.35;13.18;;;;;;;;;;4957912;28;20041;-62
2023/02/11 00:24:02;;;;;;;14.63;13.25;;;;;;;;;;4958554;28;20083;-62
2023/02/11 00:26:30;;;;;;;18.63;13.57;;;;;;;;;;4957373;28;20146;-62
2023/02/11 00:28:56;;;;;;;21.63;13.05;;;;;;;;;;4958856;28;20044;-61
2023/02/11 00:31:22;;;;;;;14.00;12.80;;;;;;;;;;4956832;28;20066;-61
2023/02/11 00:33:48;;;;;;;29.02;14.15;;;;;;;;;;4956473;28;20110;-49
2023/02/11 00:36:17;;;;;;;14.00;12.90;;;;;;;;;;4958114;28;20426;-51
2023/02/11 00:38:44;;;;;;;13.65;12.68;;;;;;;;;;4953369;28;20097;-52
2023/02/11 00:41:11;;;;;;;14.38;13.10;;;;;;;;;;4956541;28;20617;-50
2023/02/11 00:43:38;;;;;;;13.82;12.60;;;;;;;;;;4955081;28;20047;-53
2023/02/11 00:46:03;;;;;;;13.90;12.90;;;;;;;;;;4955691;28;20041;-52
2023/02/11 00:48:28;;;;;;;13.50;12.50;;;;;;;;;;4956372;28;20043;-51
2023/02/11 00:50:54;;;;;;;14.73;13.63;;;;;;;;;;4956311;28;20058;-52
2023/02/11 00:53:19;;;;;;;14.40;13.27;;;;;;;;;;4955138;28;20347;-50
2023/02/11 00:55:44;;;;;;;13.50;12.50;;;;;;;;;;4953663;28;20047;-53
2023/02/11 00:58:10;;;;;;;14.30;13.20;;;;;;;;;;4960344;28;20050;-51
2023/02/11 01:00:35;;;;;;;14.68;12.98;;;;;;;;;;4956629;28;20572;-53
2023/02/11 01:03:01;;;;;;;14.57;13.38;;;;;;;;;;4955367;28;20057;-51
2023/02/11 01:05:27;;;;;;;15.25;13.75;;;;;;;;;;4958939;28;20890;-52
2023/02/11 01:07:53;;;;;;;12.43;11.50;;;;;;;;;;4957234;28;20035;-50
2023/02/11 01:10:18;;;;;;;14.65;13.63;;;;;;;;;;4955204;28;20435;-50
2023/02/11 01:12:44;;;;;;;15.27;13.80;;;;;;;;;;4953400;28;20117;-51
2023/02/11 01:15:14;;;;;;;15.52;14.32;;;;;;;;;;4955847;28;20496;-49
2023/02/11 01:17:39;;;;;;;14.38;11.70;;;;;;;;;;4969014;28;20031;-47
2023/02/11 01:20:07;;;;;;;14.73;13.52;;;;;;;;;;4957238;28;20472;-49
2023/02/11 01:22:33;;;;;;;13.05;11.57;;;;;;;;;;4954621;28;20085;-51
2023/02/11 01:24:59;;;;;;;15.38;14.02;;;;;;;;;;4957447;28;20039;-49
2023/02/11 01:27:24;;;;;;;12.65;11.80;;;;;;;;;;4953005;28;20427;-49
2023/02/11 01:29:50;;;;;;;14.43;13.10;;;;;;;;;;4954707;28;20067;-49
2023/02/11 01:32:17;;;;;;;12.68;11.70;;;;;;;;;;4953244;28;20031;-49
2023/02/11 01:34:42;;;;;;;12.00;11.10;;;;;;;;;;4954193;28;20043;-47
2023/02/11 01:37:07;;;;;;;11.68;10.88;;;;;;;;;;4957228;28;20042;-49
2023/02/11 01:39:33;;;;;;;12.82;11.93;;;;;;;;;;4955135;28;20031;-50
2023/02/11 01:41:59;;;;;;;14.77;13.32;;;;;;;;;;4954130;28;20066;-48
2023/02/11 01:44:43;;;;;;;19.30;13.35;;;;;;;;;;4953216;28;20038;-61
2023/02/11 01:47:08;;;;;;;13.98;12.57;;;;;;;;;;4956633;28;20045;-51
2023/02/11 01:49:39;;;;;;;14.35;12.93;;;;;;;;;;4954606;28;20039;-49
2023/02/11 01:52:11;;;;;;;13.10;12.20;;;;;;;;;;4954577;28;20418;-51
2023/02/11 01:57:29;;;;;;;13.43;12.50;;;;;;;;;;4954066;28;20086;-49
2023/02/11 02:00:06;;;;;;;13.80;12.80;;;;;;;;;;4951379;28;20465;-49
2023/02/11 02:02:44;;;;;;;15.27;13.85;;;;;;;;;;4956460;28;20054;-51
2023/02/11 02:05:19;;;;;;;14.60;13.30;;;;;;;;;;4953038;28;20038;-50
2023/02/11 02:08:16;;;;;;;15.10;12.10;;;;;;;;;;4954920;28;20205;-49
2023/02/11 02:10:47;;;;;;;18.15;13.80;;;;;;;;;;4953353;28;20067;-53
2023/02/11 02:13:13;;;;;;;;;;;;;;;;;;4954889;28;20053;-48
2023/02/11 02:15:47;;;;;;;14.05;12.82;;;;;;;;;;4952397;28;19914;-49
2023/02/11 02:18:33;;;;;;;14.38;13.23;;;;;;;;;;4956583;28;20093;-50
2023/02/11 02:21:35;;;;;;;14.27;13.07;;;;;;;;;;4956157;28;20035;-52
2023/02/11 02:24:20;;;;;;;12.38;11.48;;;;;;;;;;4957703;28;20142;-48
2023/02/11 02:27:11;;;;;;;15.07;13.95;;;;;;;;;;4955088;28;20622;-49
2023/02/11 02:30:09;;;;;;;14.57;13.55;;;;;;;;;;4953425;28;20038;-50
2023/02/11 02:32:50;;;;;;;13.27;12.25;;;;;;;;;;4947818;28;20047;-49
2023/02/11 02:35:39;;;;;;;15.13;13.88;;;;;;;;;;4961711;28;20038;-47
2023/02/11 02:38:12;;;;;;;13.35;12.40;;;;;;;;;;4953829;28;20294;-62
2023/02/11 02:40:46;;;;;;;14.00;12.68;;;;;;;;;;4954965;28;20061;-61
2023/02/11 02:43:13;;;;;;;15.00;13.60;;;;;;;;;;4954553;28;20294;-59
2023/02/11 02:45:38;;;;;;;13.50;12.38;;;;;;;;;;4954954;28;20039;-49
2023/02/11 02:48:04;;;;;;;12.40;11.50;;;;;;;;;;4959092;28;20038;-50
2023/02/11 02:50:32;;;;;;;13.15;11.98;;;;;;;;;;4960050;28;21056;-48
2023/02/11 02:53:28;;;;;;;13.05;11.95;;;;;;;;;;4956984;28;20042;-49
2023/02/11 02:56:27;;;;;;;13.88;12.88;;;;;;;;;;4958205;28;20030;-50
2023/02/11 02:59:06;;;;;;;14.75;13.45;;;;;;;;;;4965575;28;20047;-50
2023/02/11 03:01:48;;;;;;;14.35;12.90;;;;;;;;;;4956171;28;20043;-49
2023/02/11 03:04:23;;;;;;;13.45;12.45;;;;;;;;;;4957764;28;20043;-61
2023/02/11 03:06:54;;;;;;;12.45;11.57;;;;;;;;;;4958289;28;20669;-49
2023/02/11 03:09:24;;;;;;;16.48;11.90;;;;;;;;;;4958515;28;20042;-50
2023/02/11 03:11:49;;;;;;;13.40;12.32;;;;;;;;;;4956748;28;20035;-53
2023/02/11 03:14:17;;;;;;;12.38;11.18;;;;;;;;;;4960119;28;20489;-52
2023/02/11 03:16:44;;;;;;;15.32;13.98;;;;;;;;;;4957495;28;20039;-49
2023/02/11 03:19:15;;;;;;;16.25;14.88;;;;;;;;;;4959461;28;20182;-60
2023/02/11 03:21:43;;;;;;;12.65;11.75;;;;;;;;;;4957501;28;20047;-61
2023/02/11 03:24:17;;;;;;;12.98;12.02;;;;;;;;;;4956375;28;20077;-60
2023/02/11 03:26:50;;;;;;;13.13;12.13;;;;;;;;;;4958754;28;20433;-50
2023/02/11 03:29:22;;;;;;;12.13;11.32;;;;;;;;;;4959605;28;20137;-53
2023/02/11 03:32:10;;;;;;;12.48;11.23;;;;;;;;;;4953177;28;20034;-52
2023/02/11 03:34:47;;;;;;;13.05;11.98;;;;;;;;;;4956967;28;20047;-60
2023/02/11 03:37:32;;;;;;;14.93;13.43;;;;;;;;;;4958248;28;20122;-61
2023/02/11 03:40:04;;;;;;;14.57;13.45;;;;;;;;;;4957333;28;20122;-60
2023/02/11 03:42:53;;;;;;;13.00;12.10;;;;;;;;;;4956854;28;20047;-49
2023/02/11 03:45:21;;;;;;;12.68;11.77;;;;;;;;;;4958014;28;20038;-61
2023/02/11 03:47:52;;;;;;;12.02;11.13;;;;;;;;;;4955393;28;20065;-50
2023/02/11 03:50:19;;;;;;;13.27;12.25;;;;;;;;;;4956270;28;20668;-52
2023/02/11 03:52:47;;;;;;;13.43;12.35;;;;;;;;;;4958990;28;20065;-55
2023/02/11 03:55:16;;;;;;;13.43;12.52;;;;;;;;;;4957261;28;20070;-51
2023/02/11 03:57:41;;;;;;;13.32;12.25;;;;;;;;;;4958093;28;20077;-61
2023/02/11 04:00:08;;;;;;;13.13;12.00;;;;;;;;;;4956575;28;20090;-61
2023/02/11 04:02:36;;;;;;;13.45;12.38;;;;;;;;;;4955661;28;20108;-51
2023/02/11 04:05:06;;;;;;;12.73;11.75;;;;;;;;;;4956537;28;20118;-60
2023/02/11 04:07:32;;;;;;;13.20;12.20;;;;;;;;;;4954821;28;20039;-61
2023/02/11 04:09:58;;;;;;;12.57;11.57;;;;;;;;;;4956245;28;20035;-61
2023/02/11 04:12:23;;;;;;;12.48;11.63;;;;;;;;;;4954086;28;20054;-61
2023/02/11 04:14:48;;;;;;;13.32;12.35;;;;;;;;;;4956307;28;20355;-60
2023/02/11 04:17:14;;;;;;;13.07;11.82;;;;;;;;;;4956469;28;20034;-60
2023/02/11 04:19:39;;;;;;;13.45;12.35;;;;;;;;;;4959423;28;20374;-50
2023/02/11 04:22:06;;;;;;;13.25;12.15;;;;;;;;;;4956531;28;20081;-60
2023/02/11 04:24:31;;;;;;;12.55;11.55;;;;;;;;;;4957572;28;20047;-49
2023/02/11 04:26:56;;;;;;;13.85;12.80;;;;;;;;;;4956705;28;20042;-60
2023/02/11 04:29:22;;;;;;;14.13;13.07;;;;;;;;;;4958071;28;20046;-50
2023/02/11 04:31:48;;;;;;;13.43;12.43;;;;;;;;;;4954256;28;20042;-60
2023/02/11 04:34:13;;;;;;;12.63;11.73;;;;;;;;;;4958107;28;20042;-50
2023/02/11 04:36:39;;;;;;;14.43;13.10;;;;;;;;;;4959528;28;20038;-50
2023/02/11 04:39:05;;;;;;;13.30;12.27;;;;;;;;;;4959446;28;20356;-49
2023/02/11 04:41:30;;;;;;;13.65;12.60;;;;;;;;;;4955776;28;20035;-60
2023/02/11 04:43:55;;;;;;;11.85;10.90;;;;;;;;;;4953327;28;20457;-60
2023/02/11 04:46:53;;;;;;;14.05;12.95;;;;;;;;;;4957501;28;20049;-61
2023/02/11 04:49:21;;;;;;;14.05;13.00;;;;;;;;;;4958956;28;20046;-61
2023/02/11 04:51:46;;;;;;;15.27;13.98;;;;;;;;;;4958359;28;20027;-60
2023/02/11 04:54:12;;;;;;;13.13;12.13;;;;;;;;;;4959014;28;20113;-51
2023/02/11 04:56:38;;;;;;;14.02;12.77;;;;;;;;;;4954160;28;20639;-51
2023/02/11 04:59:04;;;;;;;12.15;11.27;;;;;;;;;;4956525;28;20493;-51
2023/02/11 05:01:29;;;;;;;13.40;12.35;;;;;;;;;;4952249;28;20377;-51
2023/02/11 05:03:55;;;;;;;13.30;12.32;;;;;;;;;;4959071;28;20038;-52
2023/02/11 05:06:21;;;;;;;13.27;12.35;;;;;;;;;;4956927;28;20038;-60
2023/02/11 05:08:46;;;;;;;13.98;12.57;;;;;;;;;;4958491;28;20027;-60
2023/02/11 05:11:18;;;;;;;13.32;12.13;;;;;;;;;;4957868;28;20138;-52
2023/02/11 05:13:44;;;;;;;12.98;12.07;;;;;;;;;;4954460;28;20519;-51
2023/02/11 05:16:10;;;;;;;19.08;12.48;;;;;;;;;;4956881;28;20149;-51
2023/02/11 05:18:40;;;;;;;15.57;14.48;;;;;;;;;;4956090;28;20342;-53
2023/02/11 05:21:08;;;;;;;13.57;12.48;;;;;;;;;;4955477;28;20070;-48
2023/02/11 05:23:33;;;;;;;14.85;13.80;;;;;;;;;;4957985;28;20138;-50
2023/02/11 05:25:59;;;;;;;14.50;13.25;;;;;;;;;;4953493;28;20114;-52
2023/02/11 05:28:24;;;;;;;14.70;13.38;;;;;;;;;;4955637;28;20035;-61
2023/02/11 05:30:50;;;;;;;13.02;12.02;;;;;;;;;;4955792;28;20138;-60
2023/02/11 05:33:15;;;;;;;12.32;11.52;;;;;;;;;;4957206;28;20035;-52
2023/02/11 05:35:40;;;;;;;13.30;12.32;;;;;;;;;;4954644;28;20099;-51
2023/02/11 05:38:06;;;;;;;12.32;11.38;;;;;;;;;;4955765;28;20416;-61
2023/02/11 05:40:31;;;;;;;12.93;12.02;;;;;;;;;;4956060;28;20399;-49
2023/02/11 05:42:56;;;;;;;12.25;11.43;;;;;;;;;;4955920;28;20456;-51
2023/02/11 05:45:22;;;;;;;11.27;10.45;;;;;;;;;;4954642;28;20035;-60
2023/02/11 05:47:47;;;;;;;13.40;12.30;;;;;;;;;;4955351;28;20126;-61
2023/02/11 05:50:13;;;;;;;13.38;12.30;;;;;;;;;;4953181;28;20037;-60
2023/02/11 05:52:38;;;;;;;20.73;13.73;;;;;;;;;;4956281;28;20043;-53
2023/02/11 05:55:04;;;;;;;12.68;11.77;;;;;;;;;;4955937;28;20066;-53
2023/02/11 05:57:29;;;;;;;12.52;11.73;;;;;;;;;;4952907;28;20098;-52
2023/02/11 05:59:55;;;;;;;13.85;12.85;;;;;;;;;;4956867;28;20035;-52
2023/02/11 06:02:20;;;;;;;12.55;11.50;;;;;;;;;;4955369;28;20051;-52
2023/02/11 06:04:45;;;;;;;13.00;12.07;;;;;;;;;;4955194;28;20035;-61
2023/02/11 06:07:11;;;;;;;13.68;12.57;;;;;;;;;;4959180;28;20043;-53
2023/02/11 06:09:36;;;;;;;13.05;11.68;;;;;;;;;;4952785;28;20039;-49
2023/02/11 06:12:02;;;;;;;12.90;11.98;;;;;;;;;;4953404;28;20429;-60
2023/02/11 06:14:27;;;;;;;12.40;11.50;;;;;;;;;;4951063;28;20429;-60
2023/02/11 06:16:52;;;;;;;13.35;12.27;;;;;;;;;;4957426;28;20046;-61
2023/02/11 06:19:18;;;;;;;13.45;12.43;;;;;;;;;;4960563;28;20030;-61
2023/02/11 06:21:43;;;;;;;15.68;12.77;;;;;;;;;;4959144;28;20041;-61
2023/02/11 06:24:09;;;;;;;11.93;11.02;;;;;;;;;;4958369;28;20094;-60
2023/02/11 06:26:34;;;;;;;12.60;11.73;;;;;;;;;;4959451;28;20030;-61
2023/02/11 06:29:00;;;;;;;12.82;11.82;;;;;;;;;;4955307;28;20069;-59
2023/02/11 06:31:25;;;;;;;11.43;10.63;;;;;;;;;;4958678;28;20574;-51
2023/02/11 06:33:53;;;;;;;12.70;11.80;;;;;;;;;;4957103;28;20106;-51
2023/02/11 06:36:20;;;;;;;12.63;11.55;;;;;;;;;;4966752;28;20050;-60
2023/02/11 06:38:46;;;;;;;10.88;10.15;;;;;;;;;;4955472;28;20049;-59
2023/02/11 06:41:13;;;;;;;13.82;12.77;;;;;;;;;;4957620;28;20031;-49
2023/02/11 06:43:40;;;;;;;13.55;12.57;;;;;;;;;;4957857;28;20031;-52
2023/02/11 06:46:06;;;;;;;15.60;14.00;;;;;;;;;;4959109;28;20041;-59
2023/02/11 06:48:32;;;;;;;12.68;11.80;;;;;;;;;;4959388;28;20031;-59
2023/02/11 06:51:03;;;;;;;13.50;12.40;;;;;;;;;;4959720;28;20625;-53
2023/02/11 06:53:29;;;;;;;13.25;12.35;;;;;;;;;;4959478;28;20072;-53
2023/02/11 06:55:55;;;;;;;13.05;12.05;;;;;;;;;;4959861;28;20548;-53
2023/02/11 06:58:20;;;;;;;13.02;12.07;;;;;;;;;;4960340;28;20481;-51
2023/02/11 07:00:46;;;;;;;13.93;12.93;;;;;;;;;;4958466;28;20035;-59
2023/02/11 07:03:11;;;;;;;13.40;12.20;;;;;;;;;;4958776;28;20058;-58
2023/02/11 07:05:37;;;;;;;13.63;12.30;;;;;;;;;;4958795;28;20034;-50
2023/02/11 07:08:03;;;;;;;12.45;11.55;;;;;;;;;;4956158;28;20031;-51
2023/02/11 07:10:29;;;;;;;13.63;12.40;;;;;;;;;;4956314;28;20054;-49
2023/02/11 07:12:54;;;;;;;12.23;11.32;;;;;;;;;;4956578;28;20073;-49
2023/02/11 07:15:19;;;;;;;11.77;10.93;;;;;;;;;;4957876;28;20034;-59
2023/02/11 07:17:45;;;;;;;13.13;12.13;;;;;;;;;;4956867;28;20039;-61
2023/02/11 07:20:13;;;;;;;13.80;12.57;;;;;;;;;;4956488;28;20074;-59
2023/02/11 07:22:38;;;;;;;12.80;11.82;;;;;;;;;;4954474;28;20074;-60
2023/02/11 07:25:04;;;;;;;11.93;11.05;;;;;;;;;;4959039;28;20058;-59
2023/02/11 07:27:30;;;;;;;12.90;11.90;;;;;;;;;;4958799;28;20094;-60
2023/02/11 07:29:55;;;;;;;13.23;12.20;;;;;;;;;;4959421;28;20070;-60
2023/02/11 07:32:20;;;;;;;12.73;11.68;;;;;;;;;;4958392;28;20121;-59
2023/02/11 07:34:47;;;;;;;12.38;11.48;;;;;;;;;;4957863;28;20039;-59
2023/02/11 07:37:12;;;;;;;13.00;11.77;;;;;;;;;;4960372;28;20089;-52
2023/02/11 07:39:38;;;;;;;12.85;11.85;;;;;;;;;;4958279;28;20465;-52
2023/02/11 07:42:03;;;;;;;11.27;10.48;;;;;;;;;;4958107;28;20456;-50
2023/02/11 07:44:29;;;;;;;11.27;10.48;;;;;;;;;;4958498;28;20043;-60
2023/02/11 07:46:54;;;;;;;13.32;12.25;;;;;;;;;;4955685;28;20039;-60
2023/02/11 07:49:19;;;;;;;12.68;11.57;;;;;;;;;;4958191;28;20706;-59
2023/02/11 07:51:46;;;;;;;12.82;11.90;;;;;;;;;;4957538;28;20043;-60
2023/02/11 07:54:11;;;;;;;11.70;10.88;;;;;;;;;;4956104;28;20126;-59
2023/02/11 07:56:36;;;;;;;13.57;12.57;;;;;;;;;;4957670;28;20118;-59
2023/02/11 07:59:02;;;;;;;12.05;11.07;;;;;;;;;;4956658;28;20736;-59
2023/02/11 08:01:28;;;;;;;12.30;11.23;;;;;;;;;;4957461;28;20491;-59
2023/02/11 08:03:55;;;;;;;13.88;11.90;;;;;;;;;;4959360;28;20035;-59
2023/02/11 08:06:23;;;;;;;14.65;13.25;;;;;;;;;;4959104;28;20043;-59
2023/02/11 08:08:49;;;;;;;13.77;12.60;;;;;;;;;;4955624;28;20412;-60
2023/02/11 08:11:34;;;;;;;13.13;12.20;;;;;;;;;;4958046;28;20027;-59
2023/02/11 08:13:59;;;;;;;12.52;11.70;;;;;;;;;;4956641;28;20087;-60
2023/02/11 08:16:31;;;;;;;13.48;12.55;;;;;;;;;;4957841;28;20122;-59
2023/02/11 08:18:57;;;;;;;;;;;;;;;;;;4956408;28;20089;-59
2023/02/11 08:21:23;;;;;;;14.73;13.52;;;;;;;;;;4956489;28;19929;-61
2023/02/11 08:23:48;;;;;;;15.23;14.00;;;;;;;;;;4958460;28;20051;-51
2023/02/11 08:26:17;;;;;;;17.25;15.93;;;;;;;;;;4956119;28;20039;-54
2023/02/11 08:28:44;;;;;;;13.93;12.95;;;;;;;;;;4955632;28;20042;-49
2023/02/11 08:31:21;;;;;;;16.27;14.88;;;;;;;;;;4957112;28;20489;-61
2023/02/11 08:33:47;;;;;;;14.43;13.43;;;;;;;;;;4955001;28;20031;-63
2023/02/11 08:36:19;;;;;;;14.20;13.23;;;;;;;;;;4955875;28;20035;-61
2023/02/11 08:38:45;;;;;;;14.23;13.30;;;;;;;;;;4965502;28;20421;-62
2023/02/11 08:41:13;;;;;;;13.65;12.55;;;;;;;;;;4956208;28;20540;-52
2023/02/11 08:43:40;;;;;;;15.73;14.70;;;;;;;;;;4958171;28;20177;-52
2023/02/11 08:46:06;;;;;;;15.20;13.75;;;;;;;;;;4956231;28;20034;-61
2023/02/11 08:48:32;;;;;;;15.82;14.63;;;;;;;;;;4955439;28;20473;-60
2023/02/11 08:50:57;;;;;;;13.75;12.75;;;;;;;;;;4956449;28;20111;-60
2023/02/11 08:53:23;;;;;;;13.77;12.80;;;;;;;;;;4956798;28;20054;-61
2023/02/11 08:55:50;;;;;;;15.05;13.48;;;;;;;;;;4957080;28;20061;-52
2023/02/11 08:58:15;;;;;;;14.63;13.63;;;;;;;;;;4957915;28;20094;-52
2023/02/11 09:00:44;;;;;;;13.73;12.73;;;;;;;;;;4955487;28;20432;-53
2023/02/11 09:03:10;;;;;;;13.40;12.50;;;;;;;;;;4957243;28;20034;-54
2023/02/11 09:05:40;;;;;;;14.63;13.25;;;;;;;;;;4955030;28;20075;-53
2023/02/11 09:08:05;;;;;;;13.05;12.15;;;;;;;;;;4964279;28;20026;-50
2023/02/11 09:10:31;;;;;;;13.13;12.18;;;;;;;;;;4956407;28;20030;-50
2023/02/11 09:12:56;;;;;;;31.20;14.32;;;;;;;;;;4954483;28;20065;-52
2023/02/11 09:15:21;;;;;;;13.57;12.63;;;;;;;;;;4954380;28;20126;-53
2023/02/11 09:17:47;;;;;;;15.13;14.02;;;;;;;;;;4954247;28;20121;-54
2023/02/11 09:20:12;;;;;;;14.18;13.23;;;;;;;;;;4954108;28;20039;-54
2023/02/11 09:22:38;;;;;;;14.65;13.65;;;;;;;;;;4954730;28;20043;-53
2023/02/11 09:25:03;;;;;;;15.15;14.15;;;;;;;;;;4954886;28;20034;-53
2023/02/11 09:27:28;;;;;;;16.77;15.55;;;;;;;;;;4954111;28;20057;-53
2023/02/11 09:29:54;;;;;;;15.32;14.13;;;;;;;;;;4959447;28;20429;-52
2023/02/11 09:32:19;;;;;;;16.00;14.65;;;;;;;;;;4957227;28;20039;-50
2023/02/11 09:34:45;;;;;;;15.15;13.70;;;;;;;;;;4952279;28;20031;-53
2023/02/11 09:37:10;;;;;;;16.00;14.75;;;;;;;;;;4956547;28;20126;-50
2023/02/11 09:39:35;;;;;;;16.05;15.05;;;;;;;;;;4956693;28;20118;-53
2023/02/11 09:42:19;;;;;;;14.90;13.90;;;;;;;;;;4955848;28;20034;-49
2023/02/11 09:44:45;;;;;;;14.73;13.43;;;;;;;;;;4953746;28;20034;-51
2023/02/11 09:47:27;;;;;;;16.02;14.70;;;;;;;;;;4953799;28;20045;-62
2023/02/11 09:50:00;;;;;;;15.13;14.05;;;;;;;;;;4951005;28;20035;-61
2023/02/11 09:52:47;;;;;;;14.90;13.82;;;;;;;;;;4953491;28;20378;-61
2023/02/11 09:55:26;;;;;;;15.68;14.68;;;;;;;;;;4955545;28;20038;-52
2023/02/11 09:57:52;;;;;;;14.20;13.20;;;;;;;;;;4953283;28;20035;-54
2023/02/11 10:00:38;;;;;;;14.25;13.23;;;;;;;;;;4954299;28;20042;-53
2023/02/11 10:03:18;;;;;;;14.82;13.43;;;;;;;;;;4951504;28;20130;-52
2023/02/11 10:05:55;;;;;;;14.23;13.20;;;;;;;;;;4954251;28;20082;-61
2023/02/11 10:08:20;;;;;;;16.48;15.15;;;;;;;;;;4955421;28;20116;-61
2023/02/11 10:10:51;;;;;;;15.60;13.55;;;;;;;;;;4951116;28;20141;-61
2023/02/11 10:13:41;;;;;;;16.23;15.02;;;;;;;;;;4953999;28;20689;-60
2023/02/11 10:16:18;;;;;;;16.00;14.77;;;;;;;;;;4953077;28;20464;-64
2023/02/11 10:18:59;;;;;;;16.48;14.93;;;;;;;;;;4955170;28;20123;-68
2023/02/11 10:21:35;;;;;;;14.70;13.65;;;;;;;;;;4953773;28;20030;-68
2023/02/11 10:24:08;;;;;;;16.08;14.90;;;;;;;;;;4953321;28;20043;-62
2023/02/11 10:26:37;;;;;;;15.73;14.43;;;;;;;;;;4952584;28;20845;-62
2023/02/11 10:29:17;;;;;;;15.93;14.68;;;;;;;;;;4957171;28;20045;-60
2023/02/11 10:31:44;;;;;;;15.25;14.10;;;;;;;;;;4952914;28;20053;-62
2023/02/11 10:34:12;;;;;;;15.90;14.35;;;;;;;;;;4954229;28;20058;-62
2023/02/11 10:36:40;;;;;;;17.98;16.58;;;;;;;;;;4952334;28;20135;-62
2023/02/11 10:39:23;;;;;;;15.40;14.25;;;;;;;;;;4954101;28;20742;-60
2023/02/11 10:41:53;;;;;;;17.92;14.73;;;;;;;;;;4952723;28;20043;-61
2023/02/11 10:44:28;;;;;;;15.27;14.15;;;;;;;;;;4954596;28;20110;-62
2023/02/11 10:46:55;;;;;;;15.25;14.10;;;;;;;;;;4954513;28;20491;-62
2023/02/11 10:49:53;;;;;;;16.30;14.98;;;;;;;;;;4939625;28;20054;-62
2023/02/11 10:52:24;;;;;;;15.13;13.93;;;;;;;;;;4937196;28;20035;-62
2023/02/11 10:55:13;;;;;;;15.00;13.98;;;;;;;;;;4956293;28;20035;-62
2023/02/11 10:57:48;;;;;;;14.55;13.55;;;;;;;;;;4954307;28;20030;-63
2023/02/11 11:00:16;;;;;;;15.57;14.13;;;;;;;;;;4952376;28;20050;-62
2023/02/11 11:02:43;;;;;;;16.38;14.77;;;;;;;;;;4956950;28;20446;-62
2023/02/11 11:05:18;;;;;;;14.38;13.43;;;;;;;;;;4958911;28;20066;-61
2023/02/11 11:08:12;;;;;;;13.38;12.38;;;;;;;;;;4957251;28;20030;-62
2023/02/11 11:10:44;;;;;;;14.48;13.43;;;;;;;;;;4954496;28;20085;-63
2023/02/11 11:13:32;;;;;;;15.32;14.13;;;;;;;;;;4958087;28;20545;-62
2023/02/11 11:16:14;;;;;;;15.80;14.43;;;;;;;;;;4956299;28;20042;-63
2023/02/11 11:18:42;;;;;;;15.48;14.38;;;;;;;;;;4957764;28;20039;-63
2023/02/11 11:21:21;;;;;;;14.00;13.00;;;;;;;;;;4958413;28;20046;-62
2023/02/11 11:23:53;;;;;;;15.27;13.88;;;;;;;;;;4956251;28;20090;-63
2023/02/11 11:26:19;;;;;;;17.30;15.75;;;;;;;;;;4954460;28;20046;-62
2023/02/11 11:28:53;;;;;;;17.95;16.65;;;;;;;;;;4957307;28;20030;-62
2023/02/11 11:31:58;;;;;;;16.67;15.02;;;;;;;;;;4955106;28;20461;-63
2023/02/11 11:34:36;;;;;;;12.88;11.98;;;;;;;;;;4959685;28;20454;-63
2023/02/11 11:37:12;;;;;;;14.35;13.32;;;;;;;;;;4957321;28;20046;-63
2023/02/11 11:39:38;;;;;;;13.63;12.65;;;;;;;;;;4958155;28;20694;-63
2023/02/11 11:42:23;;;;;;;18.00;16.45;;;;;;;;;;4956610;28;20035;-63
2023/02/11 11:45:25;;;;;;;13.88;12.82;;;;;;;;;;4959791;28;20042;-63
2023/02/11 11:48:25;;;;;;;15.73;14.45;;;;;;;;;;4956905;28;20073;-64
2023/02/11 11:51:05;;;;;;;16.38;14.48;;;;;;;;;;4949691;28;20042;-62
2023/02/11 11:53:53;;;;;;;15.50;14.40;;;;;;;;;;4955337;28;20043;-63
2023/02/11 11:56:21;;;;;;;16.88;15.32;;;;;;;;;;4959625;28;20077;-63
2023/02/11 11:58:48;;;;;;;13.75;12.75;;;;;;;;;;4961105;28;20401;-62
2023/02/11 12:01:38;;;;;;;15.27;14.07;;;;;;;;;;4957938;28;20129;-63
2023/02/11 12:04:16;;;;;;;13.60;12.60;;;;;;;;;;4954702;28;20086;-63
2023/02/11 12:07:03;;;;;;;14.82;13.73;;;;;;;;;;4957933;28;20047;-62
2023/02/11 12:10:11;;;;;;;14.07;12.88;;;;;;;;;;4959985;28;20039;-63
2023/02/11 12:12:59;;;;;;;14.27;13.07;;;;;;;;;;4936344;28;20047;-63
2023/02/11 12:15:33;;;;;;;13.90;12.45;;;;;;;;;;4959009;28;20118;-64
2023/02/11 12:18:23;;;;;;;15.57;14.25;;;;;;;;;;4963850;28;20072;-60
2023/02/11 12:21:13;;;;;;;14.07;13.05;;;;;;;;;;4954999;28;20038;-62
2023/02/11 12:23:53;;;;;;;14.18;13.07;;;;;;;;;;4957299;28;20409;-62
2023/02/11 12:26:28;;;;;;;14.30;13.40;;;;;;;;;;4956254;28;20110;-62
2023/02/11 12:29:17;;;;;;;13.48;12.68;;;;;;;;;;4954906;28;20066;-62
2023/02/11 12:31:57;;;;;;;16.50;14.95;;;;;;;;;;4958919;28;20037;-62
2023/02/11 12:34:36;;;;;;;14.07;12.98;;;;;;;;;;4955100;28;20034;-62
2023/02/11 12:37:18;;;;;;;14.50;13.40;;;;;;;;;;4956779;28;20050;-62
2023/02/11 12:40:02;;;;;;;13.95;12.95;;;;;;;;;;4957348;28;20558;-63
2023/02/11 12:45:11;;;;;;;13.95;12.95;;;;;;;;;;4954800;28;20031;-62
2023/02/11 12:47:58;;;;;;;13.57;12.60;;;;;;;;;;4956912;28;20077;-62
2023/02/11 12:50:56;;;;;;;12.98;11.75;;;;;;;;;;4958108;28;20051;-68
2023/02/11 12:53:31;;;;;;;15.10;13.85;;;;;;;;;;4937098;28;20110;-69
2023/02/11 12:56:04;;;;;;;14.55;13.48;;;;;;;;;;4954499;28;20081;-68
2023/02/11 12:58:34;;;;;;;12.40;11.60;;;;;;;;;;4957474;28;20026;-68
2023/02/11 13:01:05;;;;;;;15.50;14.45;;;;;;;;;;4956068;28;20437;-68
2023/02/11 13:03:40;;;;;;;13.10;12.20;;;;;;;;;;4954318;28;20389;-67
2023/02/11 13:06:13;;;;;;;14.13;12.88;;;;;;;;;;4958906;28;20042;-66
2023/02/11 13:08:46;;;;;;;14.30;13.27;;;;;;;;;;4957164;28;20126;-68
2023/02/11 13:11:38;;;;;;;14.07;13.07;;;;;;;;;;4956445;28;20442;-67
2023/02/11 13:14:07;;;;;;;15.77;14.68;;;;;;;;;;4954737;28;20117;-68
2023/02/11 13:16:45;;;;;;;15.38;14.00;;;;;;;;;;4957509;28;20521;-67
2023/02/11 13:19:29;;;;;;;13.70;12.70;;;;;;;;;;4953269;28;20424;-66
2023/02/11 13:22:04;;;;;;;13.73;12.73;;;;;;;;;;4962614;28;20027;-66
2023/02/11 13:25:00;;;;;;;14.15;13.15;;;;;;;;;;4956279;28;20035;-68
2023/02/11 13:27:40;;;;;;;16.88;15.40;;;;;;;;;;4955719;28;20042;-64
2023/02/11 13:30:17;;;;;;;14.38;13.38;;;;;;;;;;4955560;28;20041;-62
2023/02/11 13:32:55;;;;;;;14.00;12.88;;;;;;;;;;4956306;28;20046;-64
2023/02/11 13:35:33;;;;;;;14.07;13.05;;;;;;;;;;4954889;28;20061;-63
2023/02/11 13:38:02;;;;;;;15.27;13.18;;;;;;;;;;4954053;28;20066;-63
2023/02/11 13:40:38;;;;;;;14.13;13.13;;;;;;;;;;4955920;28;20067;-63
2023/02/11 13:43:06;;;;;;;14.05;12.70;;;;;;;;;;4953170;28;20045;-68
2023/02/11 13:45:40;;;;;;;15.55;14.43;;;;;;;;;;4956994;28;20043;-69
2023/02/11 13:48:18;;;;;;;13.68;12.73;;;;;;;;;;4956725;28;20093;-68
2023/02/11 13:50:49;;;;;;;15.18;14.13;;;;;;;;;;4958623;28;20050;-68
2023/02/11 13:53:16;;;;;;;14.43;13.35;;;;;;;;;;4954755;28;20097;-63
2023/02/11 13:55:45;;;;;;;14.35;13.43;;;;;;;;;;4952698;28;20713;-63
2023/02/11 13:58:10;;;;;;;14.23;13.15;;;;;;;;;;4954299;28;20112;-68
2023/02/11 14:00:36;;;;;;;13.43;12.55;;;;;;;;;;4956729;28;20039;-63
2023/02/11 14:09:29;;;;;;;12.45;11.65;;;;;;;;;;4956811;28;20066;-67
2023/02/11 14:12:25;;;;;;;12.88;11.98;;;;;;;;;;4954358;28;20062;-68
2023/02/11 14:15:11;;;;;;;14.15;13.05;;;;;;;;;;4952976;28;20041;-68
2023/02/11 14:17:37;;;;;;;13.05;11.95;;;;;;;;;;4956272;28;20034;-68
2023/02/11 14:20:36;;;;;;;14.02;13.10;;;;;;;;;;4954025;28;20023;-68
2023/02/11 14:23:03;;;;;;;15.95;14.73;;;;;;;;;;4955737;28;20453;-68
2023/02/11 14:25:29;;;;;;;14.45;13.10;;;;;;;;;;4957498;28;20050;-68
2023/02/11 14:28:10;;;;;;;13.05;12.05;;;;;;;;;;4941528;28;20038;-67
2023/02/11 14:30:42;;;;;;;;;;;;;;;;;;4958176;28;20035;-62
2023/02/11 14:33:19;;;;;;;12.55;11.75;;;;;;;;;;4956184;28;19919;-62
2023/02/11 14:36:04;;;;;;;14.15;13.18;;;;;;;;;;4955251;28;20699;-63
2023/02/11 14:38:42;;;;;;;14.10;13.15;;;;;;;;;;4957532;28;20030;-63
2023/02/11 14:41:18;;;;;;;15.95;14.32;;;;;;;;;;4958990;28;20082;-64
2023/02/11 14:43:51;;;;;;;14.38;13.30;;;;;;;;;;4960145;28;20592;-64
2023/02/11 14:46:18;;;;;;;13.93;12.95;;;;;;;;;;4957304;28;20073;-62
2023/02/11 14:48:47;;;;;;;12.20;11.40;;;;;;;;;;4957493;28;20049;-64
2023/02/11 14:51:19;;;;;;;13.05;12.25;;;;;;;;;;4955802;28;20035;-63
2023/02/11 14:53:51;;;;;;;13.73;12.70;;;;;;;;;;4957047;28;20038;-63
2023/02/11 14:56:29;;;;;;;13.13;12.20;;;;;;;;;;4957826;28;20074;-63